sensor_id;sensor_type;location;lat;lon;timestamp;temperature;humidity
9537;DHT22;4807;48.024;11.726;2023-03-24T00:00:09;10.00;99.90
9537;DHT22;4807;48.024;11.726;2023-03-24T00:03:19;10.00;99.90
9537;DHT22;4807;48.024;11.726;2023-03-24T00:06:32;10.10;99.90
9537;DHT22;4807;48.024;11.726;2023-03-24T00:09:43;10.10;99.90
9537;DHT22;4807;48.024;11.726;2023-03-24T00:12:52;10.10;99.90
9537;DHT22;4807;48.024;11.726;2023-03-24T00:16:00;10.10;99.90
9537;DHT22;4807;48.024;11.726;2023-03-24T00:19:09;10.00;99.90
9537;DHT22;4807;48.024;11.726;2023-03-24T00:22:20;10.00;99.90
9537;DHT22;4807;48.024;11.726;2023-03-24T00:25:30;10.00;99.90
9537;DHT22;4807;48.024;11.726;2023-03-24T00:28:44;10.00;99.90
9537;DHT22;4807;48.024;11.726;2023-03-24T00:31:55;10.00;99.90
9537;DHT22;4807;48.024;11.726;2023-03-24T00:35:03;10.00;99.90
9537;DHT22;4807;48.024;11.726;2023-03-24T00:38:13;10.00;99.90
9537;DHT22;4807;48.024;11.726;2023-03-24T00:41:22;10.00;99.90
9537;DHT22;4807;48.024;11.726;2023-03-24T00:44:33;9.90;99.90
9537;DHT22;4807;48.024;11.726;2023-03-24T00:47:41;9.80;99.90
9537;DHT22;4807;48.024;11.726;2023-03-24T00:50:51;9.80;99.90
9537;DHT22;4807;48.024;11.726;2023-03-24T00:54:01;9.80;99.90
9537;DHT22;4807;48.024;11.726;2023-03-24T00:57:09;9.90;99.90
9537;DHT22;4807;48.024;11.726;2023-03-24T01:00:23;9.90;99.90
9537;DHT22;4807;48.024;11.726;2023-03-24T01:03:33;10.00;99.90
9537;DHT22;4807;48.024;11.726;2023-03-24T01:06:48;9.90;99.90
9537;DHT22;4807;48.024;11.726;2023-03-24T01:09:59;9.90;99.90
9537;DHT22;4807;48.024;11.726;2023-03-24T01:13:08;9.80;99.90
9537;DHT22;4807;48.024;11.726;2023-03-24T01:16:17;9.90;99.90
9537;DHT22;4807;48.024;11.726;2023-03-24T01:19:26;9.90;99.90
9537;DHT22;4807;48.024;11.726;2023-03-24T01:22:35;9.80;99.90
9537;DHT22;4807;48.024;11.726;2023-03-24T01:25:45;9.80;99.90
9537;DHT22;4807;48.024;11.726;2023-03-24T01:28:54;9.90;99.90
9537;DHT22;4807;48.024;11.726;2023-03-24T01:32:02;9.90;99.90
9537;DHT22;4807;48.024;11.726;2023-03-24T01:35:10;9.80;99.90
9537;DHT22;4807;48.024;11.726;2023-03-24T01:38:19;9.90;99.90
9537;DHT22;4807;48.024;11.726;2023-03-24T01:41:34;9.90;99.90
9537;DHT22;4807;48.024;11.726;2023-03-24T01:44:49;10.00;99.90
9537;DHT22;4807;48.024;11.726;2023-03-24T01:47:58;9.90;99.90
9537;DHT22;4807;48.024;11.726;2023-03-24T01:51:11;9.80;99.90
9537;DHT22;4807;48.024;11.726;2023-03-24T01:54:24;9.80;99.90
9537;DHT22;4807;48.024;11.726;2023-03-24T01:57:43;9.80;99.90
9537;DHT22;4807;48.024;11.726;2023-03-24T02:00:55;10.10;99.90
9537;DHT22;4807;48.024;11.726;2023-03-24T02:04:28;10.00;99.90
9537;DHT22;4807;48.024;11.726;2023-03-24T02:07:50;10.00;99.90
9537;DHT22;4807;48.024;11.726;2023-03-24T02:11:04;9.70;99.90
9537;DHT22;4807;48.024;11.726;2023-03-24T02:14:23;9.60;99.90
9537;DHT22;4807;48.024;11.726;2023-03-24T02:17:49;9.40;99.90
9537;DHT22;4807;48.024;11.726;2023-03-24T02:21:39;9.30;99.90
9537;DHT22;4807;48.024;11.726;2023-03-24T02:29:27;9.40;99.90
9537;DHT22;4807;48.024;11.726;2023-03-24T02:33:23;9.60;99.90
9537;DHT22;4807;48.024;11.726;2023-03-24T02:40:45;9.60;99.90
9537;DHT22;4807;48.024;11.726;2023-03-24T02:44:07;9.60;99.90
9537;DHT22;4807;48.024;11.726;2023-03-24T02:47:25;9.70;99.90
9537;DHT22;4807;48.024;11.726;2023-03-24T02:50:46;9.80;99.90
9537;DHT22;4807;48.024;11.726;2023-03-24T02:54:02;9.90;99.90
9537;DHT22;4807;48.024;11.726;2023-03-24T02:57:22;10.00;99.90
9537;DHT22;4807;48.024;11.726;2023-03-24T03:00:59;10.10;99.90
9537;DHT22;4807;48.024;11.726;2023-03-24T03:04:53;10.10;99.90
9537;DHT22;4807;48.024;11.726;2023-03-24T03:08:05;10.00;99.90
9537;DHT22;4807;48.024;11.726;2023-03-24T03:11:17;9.90;99.90
9537;DHT22;4807;48.024;11.726;2023-03-24T03:14:31;9.90;99.90
9537;DHT22;4807;48.024;11.726;2023-03-24T03:17:47;9.90;99.90
9537;DHT22;4807;48.024;11.726;2023-03-24T03:21:03;10.20;99.90
9537;DHT22;4807;48.024;11.726;2023-03-24T03:24:18;10.20;99.90
9537;DHT22;4807;48.024;11.726;2023-03-24T03:27:35;10.10;99.90
9537;DHT22;4807;48.024;11.726;2023-03-24T03:30:51;10.00;99.90
9537;DHT22;4807;48.024;11.726;2023-03-24T03:34:07;9.90;99.90
9537;DHT22;4807;48.024;11.726;2023-03-24T03:37:26;9.80;99.90
9537;DHT22;4807;48.024;11.726;2023-03-24T03:40:45;9.70;99.90
9537;DHT22;4807;48.024;11.726;2023-03-24T03:44:01;9.70;99.90
9537;DHT22;4807;48.024;11.726;2023-03-24T03:47:10;9.80;99.90
9537;DHT22;4807;48.024;11.726;2023-03-24T03:50:22;9.80;99.90
9537;DHT22;4807;48.024;11.726;2023-03-24T03:53:36;9.80;99.90
9537;DHT22;4807;48.024;11.726;2023-03-24T03:56:48;9.80;99.90
9537;DHT22;4807;48.024;11.726;2023-03-24T04:00:13;9.80;99.90
9537;DHT22;4807;48.024;11.726;2023-03-24T04:04:09;9.80;99.90
9537;DHT22;4807;48.024;11.726;2023-03-24T04:08:22;9.90;99.90
9537;DHT22;4807;48.024;11.726;2023-03-24T04:12:12;9.90;99.90
9537;DHT22;4807;48.024;11.726;2023-03-24T04:15:53;9.90;99.90
9537;DHT22;4807;48.024;11.726;2023-03-24T04:19:36;9.90;99.90
9537;DHT22;4807;48.024;11.726;2023-03-24T04:23:02;9.90;99.90
9537;DHT22;4807;48.024;11.726;2023-03-24T04:26:26;9.90;99.90
9537;DHT22;4807;48.024;11.726;2023-03-24T04:29:48;10.00;99.90
9537;DHT22;4807;48.024;11.726;2023-03-24T04:33:13;10.10;99.90
9537;DHT22;4807;48.024;11.726;2023-03-24T04:36:35;10.10;99.90
9537;DHT22;4807;48.024;11.726;2023-03-24T04:40:13;10.10;99.90
9537;DHT22;4807;48.024;11.726;2023-03-24T04:43:27;10.10;99.90
9537;DHT22;4807;48.024;11.726;2023-03-24T04:46:45;10.10;99.90
9537;DHT22;4807;48.024;11.726;2023-03-24T04:50:00;10.10;99.90
9537;DHT22;4807;48.024;11.726;2023-03-24T04:53:12;10.10;99.90
9537;DHT22;4807;48.024;11.726;2023-03-24T04:56:33;10.10;99.90
9537;DHT22;4807;48.024;11.726;2023-03-24T04:59:55;10.10;99.90
9537;DHT22;4807;48.024;11.726;2023-03-24T05:03:04;10.20;99.90
9537;DHT22;4807;48.024;11.726;2023-03-24T05:06:13;10.10;99.90
9537;DHT22;4807;48.024;11.726;2023-03-24T05:09:24;10.10;99.90
9537;DHT22;4807;48.024;11.726;2023-03-24T05:12:33;10.10;99.90
9537;DHT22;4807;48.024;11.726;2023-03-24T05:16:10;10.10;99.90
9537;DHT22;4807;48.024;11.726;2023-03-24T05:19:24;10.20;99.90
9537;DHT22;4807;48.024;11.726;2023-03-24T05:22:32;10.20;99.90
9537;DHT22;4807;48.024;11.726;2023-03-24T05:25:46;10.30;99.90
9537;DHT22;4807;48.024;11.726;2023-03-24T05:28:55;10.40;99.90
9537;DHT22;4807;48.024;11.726;2023-03-24T05:32:04;10.40;99.90
9537;DHT22;4807;48.024;11.726;2023-03-24T05:35:13;10.50;99.90
9537;DHT22;4807;48.024;11.726;2023-03-24T05:38:22;10.60;99.90
9537;DHT22;4807;48.024;11.726;2023-03-24T05:41:34;10.60;99.90
9537;DHT22;4807;48.024;11.726;2023-03-24T05:44:42;10.70;99.90
9537;DHT22;4807;48.024;11.726;2023-03-24T05:47:59;10.70;99.90
9537;DHT22;4807;48.024;11.726;2023-03-24T05:51:24;10.90;99.90
9537;DHT22;4807;48.024;11.726;2023-03-24T05:54:41;10.90;99.90
9537;DHT22;4807;48.024;11.726;2023-03-24T05:58:00;11.00;99.90
9537;DHT22;4807;48.024;11.726;2023-03-24T06:01:25;10.90;99.90
9537;DHT22;4807;48.024;11.726;2023-03-24T06:04:42;10.80;99.90
9537;DHT22;4807;48.024;11.726;2023-03-24T06:07:55;10.90;99.90
9537;DHT22;4807;48.024;11.726;2023-03-24T06:11:10;11.00;99.90
9537;DHT22;4807;48.024;11.726;2023-03-24T06:14:30;11.00;99.90
9537;DHT22;4807;48.024;11.726;2023-03-24T06:17:46;10.90;99.90
9537;DHT22;4807;48.024;11.726;2023-03-24T06:21:11;10.90;99.90
9537;DHT22;4807;48.024;11.726;2023-03-24T06:24:21;10.80;99.90
9537;DHT22;4807;48.024;11.726;2023-03-24T06:27:37;10.80;99.90
9537;DHT22;4807;48.024;11.726;2023-03-24T06:30:54;10.90;99.90
9537;DHT22;4807;48.024;11.726;2023-03-24T06:34:11;10.80;99.90
9537;DHT22;4807;48.024;11.726;2023-03-24T06:37:22;10.90;99.90
9537;DHT22;4807;48.024;11.726;2023-03-24T06:40:31;11.10;99.90
9537;DHT22;4807;48.024;11.726;2023-03-24T06:43:40;11.20;99.90
9537;DHT22;4807;48.024;11.726;2023-03-24T06:46:49;11.30;99.90
9537;DHT22;4807;48.024;11.726;2023-03-24T06:49:58;11.50;99.90
9537;DHT22;4807;48.024;11.726;2023-03-24T06:53:07;11.70;99.90
9537;DHT22;4807;48.024;11.726;2023-03-24T06:56:17;11.70;99.90
9537;DHT22;4807;48.024;11.726;2023-03-24T06:59:32;11.80;99.90
9537;DHT22;4807;48.024;11.726;2023-03-24T07:02:42;11.90;99.90
9537;DHT22;4807;48.024;11.726;2023-03-24T07:05:51;11.90;99.90
9537;DHT22;4807;48.024;11.726;2023-03-24T07:09:00;12.00;99.90
9537;DHT22;4807;48.024;11.726;2023-03-24T07:12:09;12.10;99.90
9537;DHT22;4807;48.024;11.726;2023-03-24T07:15:21;12.20;99.90
9537;DHT22;4807;48.024;11.726;2023-03-24T07:18:30;12.40;99.90
9537;DHT22;4807;48.024;11.726;2023-03-24T07:21:43;12.40;99.90
9537;DHT22;4807;48.024;11.726;2023-03-24T07:24:59;12.60;99.90
9537;DHT22;4807;48.024;11.726;2023-03-24T07:28:27;12.70;99.80
9537;DHT22;4807;48.024;11.726;2023-03-24T07:31:35;12.60;99.50
9537;DHT22;4807;48.024;11.726;2023-03-24T07:34:51;12.50;99.70
9537;DHT22;4807;48.024;11.726;2023-03-24T07:38:00;12.40;99.90
9537;DHT22;4807;48.024;11.726;2023-03-24T07:41:08;12.20;99.90
9537;DHT22;4807;48.024;11.726;2023-03-24T07:44:21;12.20;99.90
9537;DHT22;4807;48.024;11.726;2023-03-24T07:47:32;12.10;99.90
9537;DHT22;4807;48.024;11.726;2023-03-24T07:50:42;12.00;99.90
9537;DHT22;4807;48.024;11.726;2023-03-24T07:54:16;11.80;99.90
9537;DHT22;4807;48.024;11.726;2023-03-24T07:57:28;11.70;99.90
9537;DHT22;4807;48.024;11.726;2023-03-24T08:00:38;11.70;99.90
9537;DHT22;4807;48.024;11.726;2023-03-24T08:04:00;11.80;99.90
9537;DHT22;4807;48.024;11.726;2023-03-24T08:07:33;11.90;99.90
9537;DHT22;4807;48.024;11.726;2023-03-24T08:10:41;12.00;99.90
9537;DHT22;4807;48.024;11.726;2023-03-24T08:13:51;12.00;99.90
9537;DHT22;4807;48.024;11.726;2023-03-24T08:16:59;12.00;99.90
9537;DHT22;4807;48.024;11.726;2023-03-24T08:20:10;12.10;99.90
9537;DHT22;4807;48.024;11.726;2023-03-24T08:23:22;12.20;99.90
9537;DHT22;4807;48.024;11.726;2023-03-24T08:26:31;12.40;99.90
9537;DHT22;4807;48.024;11.726;2023-03-24T08:29:41;12.60;99.90
9537;DHT22;4807;48.024;11.726;2023-03-24T08:32:52;12.90;99.90
9537;DHT22;4807;48.024;11.726;2023-03-24T08:36:05;13.30;99.90
9537;DHT22;4807;48.024;11.726;2023-03-24T08:39:16;13.70;99.90
9537;DHT22;4807;48.024;11.726;2023-03-24T08:42:24;13.90;99.60
9537;DHT22;4807;48.024;11.726;2023-03-24T08:45:32;14.00;99.50
9537;DHT22;4807;48.024;11.726;2023-03-24T08:48:42;14.20;98.60
9537;DHT22;4807;48.024;11.726;2023-03-24T08:51:50;14.30;97.90
9537;DHT22;4807;48.024;11.726;2023-03-24T08:55:00;14.40;98.10
9537;DHT22;4807;48.024;11.726;2023-03-24T08:58:12;14.40;98.10
9537;DHT22;4807;48.024;11.726;2023-03-24T09:01:22;14.50;97.60
9537;DHT22;4807;48.024;11.726;2023-03-24T09:04:31;14.40;97.40
9537;DHT22;4807;48.024;11.726;2023-03-24T09:07:39;14.20;97.20
9537;DHT22;4807;48.024;11.726;2023-03-24T09:10:50;14.10;97.20
9537;DHT22;4807;48.024;11.726;2023-03-24T09:13:58;14.20;97.50
9537;DHT22;4807;48.024;11.726;2023-03-24T09:17:06;14.30;97.90
9537;DHT22;4807;48.024;11.726;2023-03-24T09:20:15;14.60;97.40
9537;DHT22;4807;48.024;11.726;2023-03-24T09:23:24;15.00;96.50
9537;DHT22;4807;48.024;11.726;2023-03-24T09:26:36;15.10;95.50
9537;DHT22;4807;48.024;11.726;2023-03-24T09:29:44;15.20;95.10
9537;DHT22;4807;48.024;11.726;2023-03-24T09:32:53;15.20;95.20
9537;DHT22;4807;48.024;11.726;2023-03-24T09:36:05;15.10;95.60
9537;DHT22;4807;48.024;11.726;2023-03-24T09:39:14;15.10;95.20
9537;DHT22;4807;48.024;11.726;2023-03-24T09:42:31;14.90;95.70
9537;DHT22;4807;48.024;11.726;2023-03-24T09:45:47;15.00;95.70
9537;DHT22;4807;48.024;11.726;2023-03-24T09:48:58;15.00;96.00
9537;DHT22;4807;48.024;11.726;2023-03-24T09:52:08;14.80;96.80
9537;DHT22;4807;48.024;11.726;2023-03-24T09:55:22;14.70;97.10
9537;DHT22;4807;48.024;11.726;2023-03-24T09:58:34;14.60;98.10
9537;DHT22;4807;48.024;11.726;2023-03-24T10:01:43;14.40;98.90
9537;DHT22;4807;48.024;11.726;2023-03-24T10:04:52;14.20;99.70
9537;DHT22;4807;48.024;11.726;2023-03-24T10:08:06;14.10;99.90
9537;DHT22;4807;48.024;11.726;2023-03-24T10:11:28;14.00;99.90
9537;DHT22;4807;48.024;11.726;2023-03-24T10:14:56;13.80;99.90
9537;DHT22;4807;48.024;11.726;2023-03-24T10:18:29;13.90;99.90
9537;DHT22;4807;48.024;11.726;2023-03-24T10:21:53;14.00;99.90
9537;DHT22;4807;48.024;11.726;2023-03-24T10:25:13;14.10;99.90
9537;DHT22;4807;48.024;11.726;2023-03-24T10:28:32;14.00;99.90
9537;DHT22;4807;48.024;11.726;2023-03-24T10:31:50;14.00;99.90
9537;DHT22;4807;48.024;11.726;2023-03-24T10:35:06;13.80;99.90
9537;DHT22;4807;48.024;11.726;2023-03-24T10:38:22;13.60;99.90
9537;DHT22;4807;48.024;11.726;2023-03-24T10:41:32;13.60;99.90
9537;DHT22;4807;48.024;11.726;2023-03-24T10:44:44;13.60;99.90
9537;DHT22;4807;48.024;11.726;2023-03-24T10:47:58;13.60;99.90
9537;DHT22;4807;48.024;11.726;2023-03-24T10:51:13;13.50;99.90
9537;DHT22;4807;48.024;11.726;2023-03-24T10:54:24;13.50;99.90
9537;DHT22;4807;48.024;11.726;2023-03-24T10:57:34;13.50;99.90
9537;DHT22;4807;48.024;11.726;2023-03-24T11:00:43;13.70;99.90
9537;DHT22;4807;48.024;11.726;2023-03-24T11:03:58;13.70;99.90
9537;DHT22;4807;48.024;11.726;2023-03-24T11:07:14;13.60;99.90
9537;DHT22;4807;48.024;11.726;2023-03-24T11:10:26;13.30;99.90
9537;DHT22;4807;48.024;11.726;2023-03-24T11:13:34;13.30;99.90
9537;DHT22;4807;48.024;11.726;2023-03-24T11:16:43;13.10;99.90
9537;DHT22;4807;48.024;11.726;2023-03-24T11:19:54;13.10;99.90
9537;DHT22;4807;48.024;11.726;2023-03-24T11:23:07;13.00;99.90
9537;DHT22;4807;48.024;11.726;2023-03-24T11:26:23;13.10;99.90
9537;DHT22;4807;48.024;11.726;2023-03-24T11:29:39;13.30;99.90
9537;DHT22;4807;48.024;11.726;2023-03-24T11:32:48;13.50;99.90
9537;DHT22;4807;48.024;11.726;2023-03-24T11:35:58;13.70;99.90
9537;DHT22;4807;48.024;11.726;2023-03-24T11:39:15;13.80;99.90
9537;DHT22;4807;48.024;11.726;2023-03-24T11:42:26;13.80;99.90
9537;DHT22;4807;48.024;11.726;2023-03-24T11:45:38;13.70;99.90
9537;DHT22;4807;48.024;11.726;2023-03-24T11:48:50;13.40;99.90
9537;DHT22;4807;48.024;11.726;2023-03-24T11:52:06;13.30;99.90
9537;DHT22;4807;48.024;11.726;2023-03-24T11:55:29;13.50;99.90
9537;DHT22;4807;48.024;11.726;2023-03-24T11:58:45;13.90;99.90
9537;DHT22;4807;48.024;11.726;2023-03-24T12:02:00;14.50;99.90
9537;DHT22;4807;48.024;11.726;2023-03-24T12:05:25;15.10;99.90
9537;DHT22;4807;48.024;11.726;2023-03-24T12:08:48;15.30;99.90
9537;DHT22;4807;48.024;11.726;2023-03-24T12:12:19;15.60;99.90
9537;DHT22;4807;48.024;11.726;2023-03-24T12:15:39;15.60;99.90
9537;DHT22;4807;48.024;11.726;2023-03-24T12:19:16;15.80;99.90
9537;DHT22;4807;48.024;11.726;2023-03-24T12:22:46;15.90;99.90
9537;DHT22;4807;48.024;11.726;2023-03-24T12:26:14;16.00;99.90
9537;DHT22;4807;48.024;11.726;2023-03-24T12:33:23;16.20;99.90
9537;DHT22;4807;48.024;11.726;2023-03-24T12:36:48;16.20;99.90
9537;DHT22;4807;48.024;11.726;2023-03-24T12:40:29;16.30;99.90
9537;DHT22;4807;48.024;11.726;2023-03-24T12:48:08;16.10;99.90
9537;DHT22;4807;48.024;11.726;2023-03-24T12:51:35;15.50;99.90
9537;DHT22;4807;48.024;11.726;2023-03-24T12:54:56;14.90;99.90
9537;DHT22;4807;48.024;11.726;2023-03-24T12:58:17;14.60;99.90
9537;DHT22;4807;48.024;11.726;2023-03-24T13:01:34;14.50;99.90
9537;DHT22;4807;48.024;11.726;2023-03-24T13:04:47;14.60;99.90
9537;DHT22;4807;48.024;11.726;2023-03-24T13:08:02;14.90;99.90
9537;DHT22;4807;48.024;11.726;2023-03-24T13:11:22;15.30;99.90
9537;DHT22;4807;48.024;11.726;2023-03-24T13:14:52;15.50;99.90
9537;DHT22;4807;48.024;11.726;2023-03-24T13:18:20;15.30;99.90
9537;DHT22;4807;48.024;11.726;2023-03-24T13:21:36;15.40;99.90
9537;DHT22;4807;48.024;11.726;2023-03-24T13:24:46;15.40;99.90
9537;DHT22;4807;48.024;11.726;2023-03-24T13:27:58;15.60;99.90
9537;DHT22;4807;48.024;11.726;2023-03-24T13:31:13;15.50;99.90
9537;DHT22;4807;48.024;11.726;2023-03-24T13:34:28;15.40;99.90
9537;DHT22;4807;48.024;11.726;2023-03-24T13:37:46;15.20;99.90
9537;DHT22;4807;48.024;11.726;2023-03-24T13:40:57;15.20;99.90
9537;DHT22;4807;48.024;11.726;2023-03-24T13:44:17;15.10;99.90
9537;DHT22;4807;48.024;11.726;2023-03-24T13:47:46;15.10;99.90
9537;DHT22;4807;48.024;11.726;2023-03-24T13:50:59;15.20;99.90
9537;DHT22;4807;48.024;11.726;2023-03-24T13:54:14;15.20;99.90
9537;DHT22;4807;48.024;11.726;2023-03-24T13:57:26;15.20;99.90
9537;DHT22;4807;48.024;11.726;2023-03-24T14:01:04;15.00;99.90
9537;DHT22;4807;48.024;11.726;2023-03-24T14:04:28;15.00;99.90
9537;DHT22;4807;48.024;11.726;2023-03-24T14:07:50;15.10;99.90
9537;DHT22;4807;48.024;11.726;2023-03-24T14:11:41;15.10;99.90
9537;DHT22;4807;48.024;11.726;2023-03-24T14:15:14;15.00;99.90
9537;DHT22;4807;48.024;11.726;2023-03-24T14:18:40;15.00;99.90
9537;DHT22;4807;48.024;11.726;2023-03-24T14:22:20;14.90;99.90
9537;DHT22;4807;48.024;11.726;2023-03-24T14:25:33;14.60;98.90
9537;DHT22;4807;48.024;11.726;2023-03-24T14:28:43;15.60;99.80
9537;DHT22;4807;48.024;11.726;2023-03-24T14:32:01;14.40;99.30
9537;DHT22;4807;48.024;11.726;2023-03-24T14:35:28;14.30;99.40
9537;DHT22;4807;48.024;11.726;2023-03-24T14:38:40;14.20;98.80
9537;DHT22;4807;48.024;11.726;2023-03-24T14:41:55;14.20;98.80
9537;DHT22;4807;48.024;11.726;2023-03-24T14:45:41;14.10;98.60
9537;DHT22;4807;48.024;11.726;2023-03-24T14:49:03;14.00;98.30
9537;DHT22;4807;48.024;11.726;2023-03-24T14:52:22;13.90;97.00
9537;DHT22;4807;48.024;11.726;2023-03-24T14:55:34;13.90;97.60
9537;DHT22;4807;48.024;11.726;2023-03-24T14:58:46;14.00;97.20
9537;DHT22;4807;48.024;11.726;2023-03-24T15:02:06;13.90;96.90
9537;DHT22;4807;48.024;11.726;2023-03-24T15:05:28;13.90;97.50
9537;DHT22;4807;48.024;11.726;2023-03-24T15:08:43;13.70;97.10
9537;DHT22;4807;48.024;11.726;2023-03-24T15:11:58;13.60;96.90
9537;DHT22;4807;48.024;11.726;2023-03-24T15:15:15;13.50;96.90
9537;DHT22;4807;48.024;11.726;2023-03-24T15:18:25;13.30;97.80
9537;DHT22;4807;48.024;11.726;2023-03-24T15:21:34;13.10;98.50
9537;DHT22;4807;48.024;11.726;2023-03-24T15:24:46;13.00;99.00
9537;DHT22;4807;48.024;11.726;2023-03-24T15:27:56;12.80;99.00
9537;DHT22;4807;48.024;11.726;2023-03-24T15:31:06;12.40;99.90
9537;DHT22;4807;48.024;11.726;2023-03-24T15:34:27;12.40;99.90
9537;DHT22;4807;48.024;11.726;2023-03-24T15:37:38;12.30;99.90
9537;DHT22;4807;48.024;11.726;2023-03-24T15:40:57;12.10;99.90
9537;DHT22;4807;48.024;11.726;2023-03-24T15:44:08;12.10;99.90
9537;DHT22;4807;48.024;11.726;2023-03-24T15:47:20;12.00;99.90
9537;DHT22;4807;48.024;11.726;2023-03-24T15:50:32;11.90;99.90
9537;DHT22;4807;48.024;11.726;2023-03-24T15:53:45;11.80;99.90
9537;DHT22;4807;48.024;11.726;2023-03-24T15:57:10;11.80;99.90
9537;DHT22;4807;48.024;11.726;2023-03-24T16:00:24;11.50;99.90
9537;DHT22;4807;48.024;11.726;2023-03-24T16:03:35;11.50;99.90
9537;DHT22;4807;48.024;11.726;2023-03-24T16:06:49;11.40;99.90
9537;DHT22;4807;48.024;11.726;2023-03-24T16:10:02;11.30;99.90
9537;DHT22;4807;48.024;11.726;2023-03-24T16:13:16;11.10;99.90
9537;DHT22;4807;48.024;11.726;2023-03-24T16:16:27;11.00;99.90
9537;DHT22;4807;48.024;11.726;2023-03-24T16:19:39;10.90;99.90
9537;DHT22;4807;48.024;11.726;2023-03-24T16:22:47;10.80;99.90
9537;DHT22;4807;48.024;11.726;2023-03-24T16:25:56;10.60;99.90
9537;DHT22;4807;48.024;11.726;2023-03-24T16:29:14;10.60;99.90
9537;DHT22;4807;48.024;11.726;2023-03-24T16:32:24;10.50;99.90
9537;DHT22;4807;48.024;11.726;2023-03-24T16:35:34;10.40;99.90
9537;DHT22;4807;48.024;11.726;2023-03-24T16:38:44;10.30;99.90
9537;DHT22;4807;48.024;11.726;2023-03-24T16:41:55;10.20;99.90
9537;DHT22;4807;48.024;11.726;2023-03-24T16:45:05;10.20;99.90
9537;DHT22;4807;48.024;11.726;2023-03-24T16:48:14;10.20;99.90
9537;DHT22;4807;48.024;11.726;2023-03-24T16:51:24;10.20;99.90
9537;DHT22;4807;48.024;11.726;2023-03-24T16:54:33;10.20;99.90
9537;DHT22;4807;48.024;11.726;2023-03-24T16:57:41;10.20;99.90
9537;DHT22;4807;48.024;11.726;2023-03-24T17:00:49;10.50;99.90
9537;DHT22;4807;48.024;11.726;2023-03-24T17:04:00;10.10;99.90
9537;DHT22;4807;48.024;11.726;2023-03-24T17:07:11;10.00;99.90
9537;DHT22;4807;48.024;11.726;2023-03-24T17:10:20;10.00;99.90
9537;DHT22;4807;48.024;11.726;2023-03-24T17:13:29;10.00;99.90
9537;DHT22;4807;48.024;11.726;2023-03-24T17:16:39;8.90;99.90
9537;DHT22;4807;48.024;11.726;2023-03-24T17:19:50;9.90;99.90
9537;DHT22;4807;48.024;11.726;2023-03-24T17:23:00;9.80;99.90
9537;DHT22;4807;48.024;11.726;2023-03-24T17:26:08;9.80;99.90
9537;DHT22;4807;48.024;11.726;2023-03-24T17:29:16;9.70;99.90
9537;DHT22;4807;48.024;11.726;2023-03-24T17:32:27;9.80;99.90
9537;DHT22;4807;48.024;11.726;2023-03-24T17:35:37;9.70;99.90
9537;DHT22;4807;48.024;11.726;2023-03-24T17:38:47;9.70;99.90
9537;DHT22;4807;48.024;11.726;2023-03-24T17:41:55;9.70;99.90
9537;DHT22;4807;48.024;11.726;2023-03-24T17:45:08;9.70;99.90
9537;DHT22;4807;48.024;11.726;2023-03-24T17:48:19;9.70;99.90
9537;DHT22;4807;48.024;11.726;2023-03-24T17:51:27;9.70;99.90
9537;DHT22;4807;48.024;11.726;2023-03-24T17:54:37;9.60;99.90
9537;DHT22;4807;48.024;11.726;2023-03-24T17:57:45;9.60;99.90
9537;DHT22;4807;48.024;11.726;2023-03-24T18:00:56;9.60;99.90
9537;DHT22;4807;48.024;11.726;2023-03-24T18:04:14;9.60;99.90
9537;DHT22;4807;48.024;11.726;2023-03-24T18:07:23;9.60;99.90
9537;DHT22;4807;48.024;11.726;2023-03-24T18:10:34;9.60;99.90
9537;DHT22;4807;48.024;11.726;2023-03-24T18:13:44;9.60;99.90
9537;DHT22;4807;48.024;11.726;2023-03-24T18:16:53;9.60;99.90
9537;DHT22;4807;48.024;11.726;2023-03-24T18:20:03;9.60;99.90
9537;DHT22;4807;48.024;11.726;2023-03-24T18:23:17;9.60;99.90
9537;DHT22;4807;48.024;11.726;2023-03-24T18:26:29;9.60;99.90
9537;DHT22;4807;48.024;11.726;2023-03-24T18:29:39;9.60;99.90
9537;DHT22;4807;48.024;11.726;2023-03-24T18:32:48;9.50;99.90
9537;DHT22;4807;48.024;11.726;2023-03-24T18:35:56;9.50;99.90
9537;DHT22;4807;48.024;11.726;2023-03-24T18:39:06;9.50;99.90
9537;DHT22;4807;48.024;11.726;2023-03-24T18:42:18;9.50;99.90
9537;DHT22;4807;48.024;11.726;2023-03-24T18:45:26;9.50;99.90
9537;DHT22;4807;48.024;11.726;2023-03-24T18:48:35;9.50;99.90
9537;DHT22;4807;48.024;11.726;2023-03-24T18:51:44;9.40;99.90
9537;DHT22;4807;48.024;11.726;2023-03-24T18:54:52;9.50;99.90
9537;DHT22;4807;48.024;11.726;2023-03-24T18:58:03;9.40;99.90
9537;DHT22;4807;48.024;11.726;2023-03-24T19:01:13;9.40;99.90
9537;DHT22;4807;48.024;11.726;2023-03-24T19:04:24;9.40;99.90
9537;DHT22;4807;48.024;11.726;2023-03-24T19:07:34;9.40;99.90
9537;DHT22;4807;48.024;11.726;2023-03-24T19:10:42;9.40;99.90
9537;DHT22;4807;48.024;11.726;2023-03-24T19:13:54;9.50;99.90
9537;DHT22;4807;48.024;11.726;2023-03-24T19:17:03;9.40;99.90
9537;DHT22;4807;48.024;11.726;2023-03-24T19:20:12;9.40;99.90
9537;DHT22;4807;48.024;11.726;2023-03-24T19:23:22;9.50;99.90
9537;DHT22;4807;48.024;11.726;2023-03-24T19:26:31;9.40;99.90
9537;DHT22;4807;48.024;11.726;2023-03-24T19:29:42;9.40;99.90
9537;DHT22;4807;48.024;11.726;2023-03-24T19:32:50;9.40;99.90
9537;DHT22;4807;48.024;11.726;2023-03-24T19:35:59;9.30;99.90
9537;DHT22;4807;48.024;11.726;2023-03-24T19:39:07;9.30;99.90
9537;DHT22;4807;48.024;11.726;2023-03-24T19:42:19;9.30;99.90
9537;DHT22;4807;48.024;11.726;2023-03-24T19:45:30;9.40;99.90
9537;DHT22;4807;48.024;11.726;2023-03-24T19:48:39;9.40;99.90
9537;DHT22;4807;48.024;11.726;2023-03-24T19:51:47;9.40;99.90
9537;DHT22;4807;48.024;11.726;2023-03-24T19:54:56;9.40;99.90
9537;DHT22;4807;48.024;11.726;2023-03-24T19:58:05;9.30;99.90
9537;DHT22;4807;48.024;11.726;2023-03-24T20:01:15;9.40;99.90
9537;DHT22;4807;48.024;11.726;2023-03-24T20:04:23;9.40;99.90
9537;DHT22;4807;48.024;11.726;2023-03-24T20:07:32;9.30;99.90
9537;DHT22;4807;48.024;11.726;2023-03-24T20:10:41;9.30;99.90
9537;DHT22;4807;48.024;11.726;2023-03-24T20:13:49;9.30;99.90
9537;DHT22;4807;48.024;11.726;2023-03-24T20:16:59;9.20;99.90
9537;DHT22;4807;48.024;11.726;2023-03-24T20:20:10;9.20;99.90
9537;DHT22;4807;48.024;11.726;2023-03-24T20:23:20;8.50;99.90
9537;DHT22;4807;48.024;11.726;2023-03-24T20:26:28;9.00;99.90
9537;DHT22;4807;48.024;11.726;2023-03-24T20:29:38;9.00;99.90
9537;DHT22;4807;48.024;11.726;2023-03-24T20:32:49;8.90;99.90
9537;DHT22;4807;48.024;11.726;2023-03-24T20:35:57;8.80;99.90
9537;DHT22;4807;48.024;11.726;2023-03-24T20:39:07;8.70;99.90
9537;DHT22;4807;48.024;11.726;2023-03-24T20:42:16;8.60;99.90
9537;DHT22;4807;48.024;11.726;2023-03-24T20:45:29;8.70;99.90
9537;DHT22;4807;48.024;11.726;2023-03-24T20:48:40;8.60;99.90
9537;DHT22;4807;48.024;11.726;2023-03-24T20:51:48;8.70;99.90
9537;DHT22;4807;48.024;11.726;2023-03-24T20:54:57;8.60;99.90
9537;DHT22;4807;48.024;11.726;2023-03-24T20:58:06;8.60;99.90
9537;DHT22;4807;48.024;11.726;2023-03-24T21:01:17;8.60;99.90
9537;DHT22;4807;48.024;11.726;2023-03-24T21:04:29;8.60;99.90
9537;DHT22;4807;48.024;11.726;2023-03-24T21:07:37;8.50;99.90
9537;DHT22;4807;48.024;11.726;2023-03-24T21:10:53;8.60;99.90
9537;DHT22;4807;48.024;11.726;2023-03-24T21:14:02;8.50;99.90